Time;durP1;ratioP1;P1;durP2;ratioP2;P2;SDS_P1;SDS_P2;PMS_P1;PMS_P2;Temp;Humidity;BMP_temperature;BMP_pressure;BME280_temperature;BME280_humidity;BME280_pressure;Samples;Min_cycle;Max_cycle;Signal;HPM_P1;HPM_P2
2021/08/06 00:01:16;;;;;;;;;;;;;;;18.10;nan;99589.41;5049662;28;20040;-74
2021/08/06 00:03:42;;;;;;;2.05;1.63;;;;;;;18.09;nan;99580.59;5049019;28;20011;-74
2021/08/06 00:06:07;;;;;;;2.33;1.80;;;;;;;18.04;nan;99578.56;5047637;28;20040;-74
2021/08/06 00:08:33;;;;;;;;;;;;;;;18.00;nan;99582.72;5049670;28;20036;-74
2021/08/06 00:10:59;;;;;;;4.13;1.45;;;;;;;17.96;nan;99578.84;5049149;28;20310;-74
2021/08/06 00:13:24;;;;;;;;;;;;;;;17.94;nan;99583.59;5049743;28;20033;-74
2021/08/06 00:15:50;;;;;;;2.77;1.47;;;;;;;17.91;nan;99584.06;5047126;28;20007;-74
2021/08/06 00:18:15;;;;;;;3.42;1.50;;;;;;;17.89;nan;99575.44;5048959;28;20040;-75
2021/08/06 00:20:41;;;;;;;2.83;1.33;;;;;;;17.89;nan;99574.63;5048982;28;20398;-74
2021/08/06 00:23:06;;;;;;;2.00;1.30;;;;;;;17.71;nan;99568.22;5049119;28;20094;-75
2021/08/06 00:25:31;;;;;;;1.90;1.30;;;;;;;17.77;nan;99571.84;5049379;28;20044;-75
2021/08/06 00:27:57;;;;;;;1.75;1.15;;;;;;;17.74;nan;99572.31;5049003;28;20037;-75
2021/08/06 00:30:22;;;;;;;2.75;1.25;;;;;;;17.77;nan;99572.66;5048877;28;20270;-74
2021/08/06 00:32:47;;;;;;;3.40;1.30;;;;;;;17.80;nan;99569.59;5048885;28;20033;-74
2021/08/06 00:35:13;;;;;;;2.70;1.20;;;;;;;17.79;nan;99570.59;5048765;28;20037;-74
2021/08/06 00:37:39;;;;;;;2.40;1.33;;;;;;;17.83;nan;99569.13;5048531;28;20029;-74
2021/08/06 00:40:05;;;;;;;2.55;1.40;;;;;;;17.82;nan;99566.69;5048128;28;20486;-74
2021/08/06 00:42:30;;;;;;;1.52;1.00;;;;;;;17.81;nan;99573.06;5048933;28;20398;-75
2021/08/06 00:44:55;;;;;;;2.22;1.20;;;;;;;17.83;nan;99561.13;5047818;28;20044;-74
2021/08/06 00:47:21;;;;;;;2.22;1.10;;;;;;;17.80;nan;99560.69;5049011;28;20059;-74
2021/08/06 00:49:46;;;;;;;3.65;1.10;;;;;;;17.75;nan;99557.88;5048784;28;20119;-74
2021/08/06 00:52:14;;;;;;;3.25;1.30;;;;;;;17.72;nan;99553.78;5048711;28;20029;-74
2021/08/06 00:54:39;;;;;;;1.70;1.20;;;;;;;17.65;nan;99547.69;5048007;28;20041;-75
2021/08/06 00:57:04;;;;;;;1.60;1.10;;;;;;;17.63;nan;99550.59;5049097;28;20112;-74
2021/08/06 00:59:30;;;;;;;2.30;1.33;;;;;;;17.67;nan;99555.50;5048713;28;20033;-74
2021/08/06 01:02:25;;;;;;;1.60;1.00;;;;;;;17.61;nan;99555.38;5047242;28;20033;-74
2021/08/06 01:04:59;;;;;;;2.20;1.30;;;;;;;17.57;nan;99551.50;5014909;28;20033;-74
2021/08/06 01:08:04;;;;;;;1.50;1.10;;;;;;;17.56;nan;99551.69;5047837;28;20086;-74
2021/08/06 01:10:44;;;;;;;1.40;1.00;;;;;;;17.54;nan;99549.25;5017541;28;20029;-75
2021/08/06 01:13:11;;;;;;;2.22;1.17;;;;;;;17.55;nan;99542.06;5048717;28;20095;-74
2021/08/06 01:15:38;;;;;;;1.40;1.02;;;;;;;17.45;nan;99555.94;5047926;28;20040;-74
2021/08/06 01:18:06;;;;;;;2.22;1.30;;;;;;;17.45;nan;99547.91;5048158;28;20026;-74
2021/08/06 01:20:37;;;;;;;1.55;1.00;;;;;;;17.44;nan;99551.59;5047580;28;20128;-74
2021/08/06 01:23:11;;;;;;;2.38;1.15;;;;;;;17.39;nan;99544.25;5048210;28;20051;-74
2021/08/06 01:25:54;;;;;;;2.15;1.20;;;;;;;17.39;nan;99538.91;5048324;28;20086;-74
2021/08/06 01:28:35;;;;;;;2.13;1.27;;;;;;;17.39;nan;99546.09;5047699;28;20091;-74
2021/08/06 01:31:01;;;;;;;1.20;0.80;;;;;;;17.40;nan;99539.75;5048073;28;20069;-74
2021/08/06 01:33:26;;;;;;;1.52;1.20;;;;;;;17.36;nan;99551.91;5048015;28;20068;-74
2021/08/06 01:35:52;;;;;;;1.50;1.10;;;;;;;17.34;nan;99545.97;5047292;28;20779;-74
2021/08/06 01:38:18;;;;;;;1.83;1.10;;;;;;;17.33;nan;99550.50;5047889;28;20044;-74
2021/08/06 01:40:58;;;;;;;1.85;1.00;;;;;;;17.29;nan;99556.50;5047700;28;20029;-75
2021/08/06 01:43:50;;;;;;;1.85;1.10;;;;;;;17.29;nan;99553.81;5047570;28;20112;-74
2021/08/06 01:46:28;;;;;;;1.30;0.90;;;;;;;17.26;nan;99556.94;5051011;28;20115;-74
2021/08/06 01:49:01;;;;;;;1.63;1.00;;;;;;;17.24;nan;99553.66;5051572;28;20397;-75
2021/08/06 01:51:32;;;;;;;1.80;0.90;;;;;;;17.25;nan;99547.28;5052283;28;20024;-74
2021/08/06 01:53:58;;;;;;;1.50;1.00;;;;;;;17.23;nan;99549.34;5051467;28;20025;-74
2021/08/06 01:56:24;;;;;;;1.60;1.02;;;;;;;17.19;nan;99549.78;5050997;28;20398;-74
2021/08/06 01:58:51;;;;;;;2.10;1.10;;;;;;;17.31;nan;99557.09;5049098;28;20416;-74
2021/08/06 02:01:17;;;;;;;1.38;0.80;;;;;;;17.29;nan;99556.50;5051487;28;20086;-74
2021/08/06 02:03:42;;;;;;;2.85;1.15;;;;;;;17.28;nan;99549.50;5049223;28;20033;-74
2021/08/06 02:06:09;;;;;;;1.80;1.10;;;;;;;17.31;nan;99543.72;5051268;28;20083;-74
2021/08/06 02:08:38;;;;;;;1.80;1.10;;;;;;;17.35;nan;99547.59;5051838;28;20044;-74
2021/08/06 02:11:04;;;;;;;1.88;1.02;;;;;;;17.35;nan;99545.75;5051661;28;20114;-75
2021/08/06 02:13:29;;;;;;;2.30;1.13;;;;;;;17.40;nan;99543.22;5050879;28;20290;-74
2021/08/06 02:15:55;;;;;;;1.50;1.00;;;;;;;17.44;nan;99532.91;5051312;28;20519;-74
2021/08/06 02:18:23;;;;;;;2.00;1.13;;;;;;;17.38;nan;99531.94;5049228;28;20033;-74
2021/08/06 02:20:56;;;;;;;2.35;1.13;;;;;;;17.42;nan;99529.63;5049034;28;20036;-74
2021/08/06 02:23:25;;;;;;;4.60;1.10;;;;;;;17.47;nan;99529.81;5051260;28;20411;-74
2021/08/06 02:25:53;;;;;;;1.90;0.90;;;;;;;17.54;nan;99535.91;5044007;28;20068;-74
2021/08/06 02:28:20;;;;;;;1.50;1.10;;;;;;;17.59;nan;99528.03;5048517;28;20112;-74
2021/08/06 02:30:47;;;;;;;1.95;1.05;;;;;;;17.58;nan;99528.25;5051296;28;20033;-74
2021/08/06 02:33:13;;;;;;;2.10;1.00;;;;;;;17.57;nan;99522.09;5049304;28;20037;-74
2021/08/06 02:35:38;;;;;;;1.48;0.93;;;;;;;17.56;nan;99517.75;5051638;28;20051;-74
2021/08/06 02:38:04;;;;;;;1.50;1.00;;;;;;;17.56;nan;99516.94;5050811;28;20033;-74
2021/08/06 02:40:29;;;;;;;3.30;1.00;;;;;;;17.56;nan;99516.94;5051142;28;20041;-75
2021/08/06 02:42:54;;;;;;;1.90;1.10;;;;;;;17.60;nan;99510.94;5050929;28;20440;-74
2021/08/06 02:45:20;;;;;;;2.13;0.98;;;;;;;17.50;nan;99507.16;5049865;28;20041;-75
2021/08/06 02:47:45;;;;;;;1.65;1.00;;;;;;;17.56;nan;99509.75;5050714;28;20043;-74
2021/08/06 02:50:12;;;;;;;2.63;0.98;;;;;;;17.58;nan;99510.34;5050331;28;20119;-74
2021/08/06 02:52:37;;;;;;;1.30;0.90;;;;;;;17.62;nan;99508.88;5051053;28;20048;-74
2021/08/06 02:55:03;;;;;;;1.60;0.90;;;;;;;17.63;nan;99505.13;5050271;28;20061;-74
2021/08/06 02:57:29;;;;;;;2.35;1.08;;;;;;;17.72;nan;99504.84;5049361;28;20497;-74
2021/08/06 02:59:54;;;;;;;1.52;1.05;;;;;;;17.69;nan;99507.97;5050436;28;20067;-74
2021/08/06 03:02:20;;;;;;;1.77;1.17;;;;;;;17.72;nan;99505.66;5049313;28;20383;-74
2021/08/06 03:04:45;;;;;;;1.85;1.15;;;;;;;17.74;nan;99498.25;5051767;28;20035;-74
2021/08/06 03:07:10;;;;;;;2.08;0.90;;;;;;;17.78;nan;99495.91;5049055;28;20043;-74
2021/08/06 03:09:36;;;;;;;2.00;1.30;;;;;;;17.76;nan;99498.84;5050520;28;20037;-75
2021/08/06 03:12:01;;;;;;;1.50;1.10;;;;;;;17.77;nan;99496.97;5050221;28;20029;-74
2021/08/06 03:14:26;;;;;;;1.50;1.08;;;;;;;17.80;nan;99497.38;5049705;28;20033;-74
2021/08/06 03:16:52;;;;;;;1.65;1.20;;;;;;;17.82;nan;99494.47;5050134;28;20044;-74
2021/08/06 03:19:17;;;;;;;2.85;1.20;;;;;;;17.72;nan;99491.50;5050633;28;20532;-75
2021/08/06 03:21:42;;;;;;;1.70;1.10;;;;;;;17.72;nan;99488.81;5050199;28;20029;-75
2021/08/06 03:24:07;;;;;;;3.17;1.30;;;;;;;17.68;nan;99479.59;5049273;28;20045;-74
2021/08/06 03:26:33;;;;;;;2.30;1.30;;;;;;;17.48;nan;99485.19;5049475;28;20044;-75
2021/08/06 03:28:58;;;;;;;;;;;;;;;17.38;nan;99494.53;5050931;28;20033;-74
2021/08/06 03:31:23;;;;;;;1.40;1.10;;;;;;;17.30;nan;99491.31;5049748;28;20004;-74
2021/08/06 03:33:48;;;;;;;2.22;1.27;;;;;;;17.33;nan;99485.56;5048536;28;20507;-74
2021/08/06 03:36:14;;;;;;;1.50;1.10;;;;;;;17.44;nan;99497.34;5047640;28;20402;-74
2021/08/06 03:38:40;;;;;;;2.03;1.20;;;;;;;17.44;nan;99502.69;5050444;28;20036;-75
2021/08/06 03:41:05;;;;;;;3.00;1.17;;;;;;;17.53;nan;99504.03;5050182;28;20424;-75
2021/08/06 03:43:30;;;;;;;1.50;1.10;;;;;;;17.45;nan;99504.31;5051207;28;20171;-75
2021/08/06 03:45:56;;;;;;;2.28;1.10;;;;;;;17.44;nan;99508.84;5049510;28;20494;-75
2021/08/06 03:48:21;;;;;;;1.63;1.10;;;;;;;17.37;nan;99508.91;5047935;28;20045;-75
2021/08/06 03:50:46;;;;;;;1.75;1.20;;;;;;;17.30;nan;99512.69;5049415;28;20040;-74
2021/08/06 03:53:12;;;;;;;2.20;1.10;;;;;;;17.15;nan;99521.88;5049326;28;20033;-75
2021/08/06 03:55:37;;;;;;;2.92;1.55;;;;;;;17.12;nan;99516.97;5049126;28;20033;-74
2021/08/06 03:58:03;;;;;;;2.38;1.30;;;;;;;17.00;nan;99512.56;5050675;28;20116;-75
2021/08/06 04:00:38;;;;;;;2.50;1.30;;;;;;;16.90;nan;99513.03;5049211;28;20028;-75
2021/08/06 04:03:03;;;;;;;2.08;1.30;;;;;;;16.84;nan;99506.72;5043963;28;20091;-75
2021/08/06 04:05:29;;;;;;;2.00;1.15;;;;;;;16.76;nan;99507.78;5047301;28;20033;-75
2021/08/06 04:07:54;;;;;;;2.58;1.75;;;;;;;16.79;nan;99511.09;5049367;28;20037;-75
2021/08/06 04:10:21;;;;;;;2.70;1.60;;;;;;;16.77;nan;99503.25;5048992;28;20405;-75
2021/08/06 04:12:48;;;;;;;;;;;;;;;16.73;nan;99504.72;5049928;28;20033;-75
2021/08/06 04:15:14;;;;;;;3.05;1.75;;;;;;;16.73;nan;99504.72;5047199;28;20408;-75
2021/08/06 04:17:39;;;;;;;2.20;1.50;;;;;;;16.75;nan;99505.31;5049688;28;20056;-75
2021/08/06 04:20:05;;;;;;;2.22;1.55;;;;;;;16.70;nan;99499.81;5050106;28;20029;-76
2021/08/06 04:22:31;;;;;;;1.80;1.45;;;;;;;16.72;nan;99505.78;5050504;28;20029;-75
2021/08/06 04:24:57;;;;;;;2.72;1.55;;;;;;;16.72;nan;99509.25;5045677;28;20029;-75
2021/08/06 04:27:22;;;;;;;2.58;1.80;;;;;;;16.74;nan;99509.03;5049527;28;20269;-75
2021/08/06 04:29:47;;;;;;;2.85;1.63;;;;;;;16.69;nan;99501.69;5049805;28;20144;-75
2021/08/06 04:32:12;;;;;;;2.20;1.60;;;;;;;16.66;nan;99501.28;5048283;28;20091;-75
2021/08/06 04:34:38;;;;;;;3.00;1.80;;;;;;;16.68;nan;99505.38;5049999;28;20021;-75
2021/08/06 04:37:03;;;;;;;2.53;1.67;;;;;;;16.62;nan;99514.25;5049263;28;20393;-75
2021/08/06 04:39:28;;;;;;;2.25;1.70;;;;;;;16.60;nan;99513.66;5049074;28;20041;-75
2021/08/06 04:41:54;;;;;;;5.60;1.90;;;;;;;16.61;nan;99512.59;5049108;28;20029;-75
2021/08/06 04:44:19;;;;;;;2.95;1.83;;;;;;;16.61;nan;99515.28;5048762;28;20139;-75
2021/08/06 04:46:45;;;;;;;3.58;1.50;;;;;;;16.59;nan;99509.38;5048503;28;20037;-75
2021/08/06 04:49:11;;;;;;;3.42;1.80;;;;;;;16.59;nan;99512.03;5048843;28;20033;-75
2021/08/06 04:51:37;;;;;;;2.25;1.65;;;;;;;16.64;nan;99506.84;5048794;28;20132;-75
2021/08/06 04:54:02;;;;;;;1.98;1.48;;;;;;;16.59;nan;99501.34;5048671;28;20128;-76
2021/08/06 04:56:28;;;;;;;3.17;1.95;;;;;;;16.62;nan;99508.13;5049093;28;20391;-75
2021/08/06 04:58:53;;;;;;;2.13;1.60;;;;;;;16.59;nan;99511.19;5049821;28;20029;-75
2021/08/06 05:01:18;;;;;;;3.33;2.03;;;;;;;16.64;nan;99506.84;5049950;28;20025;-76
2021/08/06 05:03:44;;;;;;;2.67;2.08;;;;;;;16.64;nan;99506.84;5048263;28;20124;-75
2021/08/06 05:06:09;;;;;;;2.88;2.00;;;;;;;16.55;nan;99513.50;5047967;28;20094;-76
2021/08/06 05:08:35;;;;;;;2.80;2.10;;;;;;;16.46;nan;99512.91;5049160;28;20044;-76
2021/08/06 05:11:00;;;;;;;4.55;2.28;;;;;;;16.47;nan;99501.22;5048685;28;20040;-76
2021/08/06 05:13:26;;;;;;;2.83;1.85;;;;;;;16.46;nan;99501.44;5048735;28;20037;-75
2021/08/06 05:15:52;;;;;;;3.65;1.90;;;;;;;16.43;nan;99501.88;5048366;28;20036;-75
2021/08/06 05:18:18;;;;;;;2.20;1.70;;;;;;;16.40;nan;99505.78;5048994;28;20025;-76
2021/08/06 05:20:43;;;;;;;4.82;2.10;;;;;;;16.41;nan;99510.09;5052080;28;20026;-75
2021/08/06 05:23:09;;;;;;;3.13;2.15;;;;;;;16.38;nan;99513.19;5051436;28;20037;-75
2021/08/06 05:25:34;;;;;;;3.05;1.98;;;;;;;16.38;nan;99515.03;5052776;28;20051;-75
2021/08/06 05:28:00;;;;;;;3.08;1.90;;;;;;;16.35;nan;99517.09;5052943;28;20413;-76
2021/08/06 05:30:25;;;;;;;3.67;1.75;;;;;;;16.30;nan;99514.25;5052505;28;20124;-76
2021/08/06 05:32:50;;;;;;;2.30;1.67;;;;;;;16.28;nan;99526.16;5052868;28;20037;-76
2021/08/06 05:35:16;;;;;;;3.63;2.10;;;;;;;16.32;nan;99530.03;5052220;28;20615;-76
2021/08/06 05:37:42;;;;;;;2.92;1.90;;;;;;;16.17;nan;99522.31;5052560;28;20040;-76
2021/08/06 05:40:08;;;;;;;3.00;1.85;;;;;;;16.19;nan;99525.59;5052165;28;20041;-77
2021/08/06 05:42:33;;;;;;;3.35;1.90;;;;;;;16.19;nan;99522.13;5052757;28;20416;-78
2021/08/06 05:44:59;;;;;;;4.70;2.15;;;;;;;16.23;nan;99528.66;5053070;28;20103;-78
2021/08/06 05:47:24;;;;;;;2.90;2.00;;;;;;;16.23;nan;99529.50;5052292;28;20029;-77
2021/08/06 05:49:49;;;;;;;3.03;2.00;;;;;;;16.21;nan;99528.03;5052520;28;20033;-77
2021/08/06 05:52:15;;;;;;;3.42;2.00;;;;;;;16.20;nan;99524.56;5052017;28;20040;-77
2021/08/06 05:54:40;;;;;;;2.70;1.98;;;;;;;16.14;nan;99528.09;5052445;28;20040;-77
2021/08/06 05:57:06;;;;;;;3.45;2.17;;;;;;;16.13;nan;99526.44;5052259;28;20531;-77
2021/08/06 05:59:31;;;;;;;4.22;2.28;;;;;;;16.11;nan;99523.16;5051317;28;20110;-78
2021/08/06 06:02:02;;;;;;;3.03;2.10;;;;;;;16.09;nan;99533.25;5052584;28;20032;-79
2021/08/06 06:04:28;;;;;;;3.40;2.17;;;;;;;16.07;nan;99530.78;5048900;28;20033;-78
2021/08/06 06:06:53;;;;;;;3.78;2.25;;;;;;;16.09;nan;99533.25;5047204;28;20307;-78
2021/08/06 06:09:18;;;;;;;4.15;2.30;;;;;;;16.10;nan;99527.69;5050408;28;20076;-78
2021/08/06 06:11:44;;;;;;;2.97;2.53;;;;;;;16.10;nan;99525.00;5040810;28;20703;-78
2021/08/06 06:14:10;;;;;;;4.35;2.60;;;;;;;16.11;nan;99524.00;5051170;28;20120;-77
2021/08/06 06:16:35;;;;;;;3.08;2.60;;;;;;;16.26;nan;99528.25;5050204;28;20067;-77
2021/08/06 06:19:01;;;;;;;5.80;3.17;;;;;;;16.32;nan;99530.03;5051478;28;20138;-78
2021/08/06 06:21:26;;;;;;;4.13;2.90;;;;;;;16.38;nan;99523.03;5051689;28;20060;-77
2021/08/06 06:23:51;;;;;;;4.43;3.20;;;;;;;16.46;nan;99528.94;5051366;28;20151;-78
2021/08/06 06:26:17;;;;;;;4.18;3.00;;;;;;;16.59;nan;99527.19;5048745;28;20052;-75
2021/08/06 06:28:42;;;;;;;4.82;3.35;;;;;;;16.68;nan;99524.06;5050777;28;20044;-77
2021/08/06 06:31:07;;;;;;;4.63;3.25;;;;;;;16.74;nan;99528.53;5051008;28;20060;-77
2021/08/06 06:33:33;;;;;;;5.25;3.13;;;;;;;16.82;nan;99521.34;5050529;28;20044;-76
2021/08/06 06:35:58;;;;;;;4.07;3.53;;;;;;;16.84;nan;99519.28;5048232;28;20036;-77
2021/08/06 06:38:24;;;;;;;4.93;3.85;;;;;;;17.07;nan;99529.38;5048498;28;20340;-77
2021/08/06 06:40:49;;;;;;;3.83;3.15;;;;;;;17.17;nan;99535.81;5047946;28;20580;-77
2021/08/06 06:43:14;;;;;;;5.15;3.30;;;;;;;17.33;nan;99539.00;5047460;28;20047;-77
2021/08/06 06:45:40;;;;;;;4.70;3.15;;;;;;;17.71;nan;99530.78;5044266;28;20029;-77
2021/08/06 06:48:07;;;;;;;;;;;;;;;17.72;nan;99545.78;5051328;28;20091;-77
2021/08/06 06:50:32;;;;;;;3.95;3.00;;;;;;;17.63;nan;99539.88;5050652;28;20459;-77
2021/08/06 06:52:57;;;;;;;4.40;2.90;;;;;;;17.72;nan;99539.63;5050040;28;20413;-76
2021/08/06 06:55:23;;;;;;;2.93;2.20;;;;;;;17.75;nan;99537.28;5049703;28;20405;-77
2021/08/06 06:57:51;;;;;;;4.15;2.38;;;;;;;17.98;nan;99533.97;5050980;28;20029;-77
2021/08/06 07:00:18;;;;;;;4.00;2.28;;;;;;;17.97;nan;99532.38;5049039;28;20041;-77
2021/08/06 07:02:43;;;;;;;3.35;2.28;;;;;;;18.07;nan;99544.38;5050488;28;20074;-76
2021/08/06 07:05:10;;;;;;;3.45;1.90;;;;;;;18.22;nan;99532.22;5049578;28;20425;-77
2021/08/06 07:07:36;;;;;;;4.40;2.05;;;;;;;18.54;nan;99537.34;5050159;28;20036;-77
2021/08/06 07:10:02;;;;;;;3.20;2.00;;;;;;;18.74;nan;99536.25;5049092;28;20414;-77
2021/08/06 07:12:27;;;;;;;3.03;2.10;;;;;;;18.96;nan;99541.91;5049949;28;20478;-76
2021/08/06 07:14:53;;;;;;;4.90;2.13;;;;;;;18.78;nan;99548.16;5050247;28;20043;-77
2021/08/06 07:17:18;;;;;;;3.10;1.73;;;;;;;18.84;nan;99548.06;5050588;28;20033;-77
2021/08/06 07:19:43;;;;;;;3.72;2.10;;;;;;;18.78;nan;99557.03;5050744;28;20033;-76
2021/08/06 07:22:09;;;;;;;3.67;1.98;;;;;;;18.71;nan;99564.31;5050008;28;20048;-77
2021/08/06 07:24:34;;;;;;;5.15;1.88;;;;;;;18.54;nan;99568.66;5050039;28;20406;-77
2021/08/06 07:26:59;;;;;;;3.08;1.90;;;;;;;18.46;nan;99562.59;5050384;28;20045;-76
2021/08/06 07:29:24;;;;;;;3.80;1.70;;;;;;;18.39;nan;99569.06;5050925;28;20040;-76
2021/08/06 07:31:50;;;;;;;2.63;1.70;;;;;;;18.43;nan;99571.06;5050843;28;20037;-76
2021/08/06 07:34:15;;;;;;;2.10;1.45;;;;;;;18.52;nan;99576.09;5049951;28;20124;-76
2021/08/06 07:36:40;;;;;;;2.28;1.30;;;;;;;18.62;nan;99568.34;5049820;28;20117;-76
2021/08/06 07:39:06;;;;;;;2.72;1.50;;;;;;;18.62;nan;99573.72;5050531;28;20029;-76
2021/08/06 07:41:31;;;;;;;2.17;1.05;;;;;;;18.58;nan;99578.69;5050118;28;20048;-77
2021/08/06 07:43:56;;;;;;;1.77;1.30;;;;;;;18.57;nan;99577.06;5049129;28;20033;-77
2021/08/06 07:46:22;;;;;;;3.10;1.10;;;;;;;18.42;nan;99580.16;5047347;28;20041;-76
2021/08/06 07:48:47;;;;;;;2.00;1.10;;;;;;;18.39;nan;99580.59;5048907;28;20029;-76
2021/08/06 07:51:12;;;;;;;3.85;1.35;;;;;;;18.36;nan;99580.25;5048797;28;20307;-75
2021/08/06 07:53:38;;;;;;;2.03;1.20;;;;;;;18.41;nan;99597.25;5050331;28;20033;-76
2021/08/06 07:56:03;;;;;;;1.38;1.00;;;;;;;18.42;nan;99587.34;5049973;28;20037;-76
2021/08/06 07:58:28;;;;;;;2.25;1.10;;;;;;;18.46;nan;99592.03;5049672;28;20035;-76
2021/08/06 08:00:54;;;;;;;2.10;1.13;;;;;;;18.55;nan;99597.91;5050269;28;20033;-76
2021/08/06 08:03:19;;;;;;;2.42;1.00;;;;;;;18.56;nan;99593.34;5050038;28;20028;-76
2021/08/06 08:05:45;;;;;;;2.90;0.90;;;;;;;18.72;nan;99584.69;5048053;28;20112;-77
2021/08/06 08:08:10;;;;;;;2.63;1.00;;;;;;;18.84;nan;99587.44;5049008;28;20029;-75
2021/08/06 08:10:36;;;;;;;1.75;1.00;;;;;;;18.98;nan;99594.22;5050083;28;20410;-76
2021/08/06 08:13:01;;;;;;;1.58;0.80;;;;;;;19.86;nan;99594.41;5049652;28;20041;-76
2021/08/06 08:15:27;;;;;;;1.50;1.02;;;;;;;20.08;nan;99598.09;5049097;28;20033;-76
2021/08/06 08:17:53;;;;;;;1.60;1.00;;;;;;;20.24;nan;99590.34;5050171;28;20064;-76
2021/08/06 08:20:18;;;;;;;2.15;0.90;;;;;;;20.89;nan;99591.84;5048314;28;20053;-75
2021/08/06 08:22:44;;;;;;;1.95;1.00;;;;;;;20.95;nan;99590.88;5049768;28;20489;-75
2021/08/06 08:25:10;;;;;;;1.92;0.90;;;;;;;20.56;nan;99598.78;5049785;28;20076;-76
2021/08/06 08:27:35;;;;;;;2.50;1.20;;;;;;;20.90;nan;99607.72;5049959;28;20044;-75
2021/08/06 08:30:02;;;;;;;2.05;1.10;;;;;;;21.13;nan;99604.09;5048885;28;20033;-76
2021/08/06 08:32:27;;;;;;;2.10;0.98;;;;;;;21.18;nan;99597.97;5049197;28;20115;-75
2021/08/06 08:34:52;;;;;;;2.33;0.85;;;;;;;21.31;nan;99602.19;5048114;28;20150;-76
2021/08/06 08:37:18;;;;;;;3.47;1.45;;;;;;;20.93;nan;99604.56;5047480;28;20094;-76
2021/08/06 08:39:43;;;;;;;2.08;1.05;;;;;;;20.90;nan;99607.72;5048632;28;20033;-75
2021/08/06 08:42:09;;;;;;;2.47;0.90;;;;;;;20.66;nan;99604.34;5048733;28;20046;-76
2021/08/06 08:44:37;;;;;;;1.60;0.90;;;;;;;20.52;nan;99609.19;5048569;28;20029;-75
2021/08/06 08:47:04;;;;;;;2.97;1.30;;;;;;;20.62;nan;99597.84;5047168;28;20041;-76
2021/08/06 08:49:33;;;;;;;2.17;1.23;;;;;;;20.82;nan;99597.38;5046914;28;20090;-76
2021/08/06 08:51:58;;;;;;;2.00;0.85;;;;;;;21.04;nan;99596.66;5044544;28;20044;-75
2021/08/06 08:54:24;;;;;;;1.83;1.02;;;;;;;21.25;nan;99598.63;5049265;28;20476;-75
2021/08/06 08:56:50;;;;;;;1.83;1.00;;;;;;;21.26;nan;99592.22;5053169;28;20569;-75
2021/08/06 08:59:15;;;;;;;2.88;1.20;;;;;;;21.31;nan;99592.28;5053302;28;20401;-75
2021/08/06 09:01:41;;;;;;;2.17;1.02;;;;;;;21.61;nan;99591.13;5052343;28;20102;-75
2021/08/06 09:04:19;;;;;;;2.17;0.93;;;;;;;22.70;nan;99586.81;5051844;28;20394;-76
2021/08/06 09:06:45;;;;;;;1.77;1.02;;;;;;;22.80;nan;99592.31;5051440;28;20048;-76
2021/08/06 09:09:22;;;;;;;1.70;1.10;;;;;;;22.66;nan;99594.59;5052276;28;20037;-76
2021/08/06 09:12:01;;;;;;;4.47;1.30;;;;;;;22.80;nan;99600.38;5053126;28;20378;-76
2021/08/06 09:14:28;;;;;;;2.40;1.20;;;;;;;22.75;nan;99589.56;5052408;28;20036;-76
2021/08/06 09:16:58;;;;;;;3.50;1.02;;;;;;;23.44;nan;99598.78;5052490;28;20386;-76
2021/08/06 09:19:25;;;;;;;2.00;1.00;;;;;;;23.87;nan;99605.81;5052356;28;20064;-76
2021/08/06 09:21:51;;;;;;;2.00;0.80;;;;;;;24.25;nan;99603.84;5052786;28;20055;-75
2021/08/06 09:24:17;;;;;;;3.63;0.95;;;;;;;24.13;nan;99605.94;5052006;28;20102;-76
2021/08/06 09:26:44;;;;;;;1.95;0.90;;;;;;;23.65;nan;99600.53;5051762;28;20041;-76
2021/08/06 09:29:17;;;;;;;6.10;1.08;;;;;;;22.80;nan;99596.88;5051295;28;20656;-76
2021/08/06 09:31:51;;;;;;;;;;;;;;;22.62;nan;99593.47;5052610;28;20087;-76
2021/08/06 09:34:31;;;;;;;2.70;1.00;;;;;;;22.19;nan;99595.13;5051647;28;19916;-76
2021/08/06 09:36:57;;;;;;;1.63;0.80;;;;;;;21.97;nan;99594.31;5051644;28;20539;-75
2021/08/06 09:39:23;;;;;;;2.53;0.83;;;;;;;21.68;nan;99599.03;5051015;28;20471;-75
2021/08/06 09:41:48;;;;;;;2.63;1.35;;;;;;;21.34;nan;99609.81;5051947;28;20029;-76
2021/08/06 09:44:23;;;;;;;5.93;1.70;;;;;;;20.61;nan;99609.63;5050577;28;20048;-76
2021/08/06 09:46:49;;;;;;;4.38;1.42;;;;;;;19.87;nan;99612.13;5050998;28;20493;-77
2021/08/06 09:49:18;;;;;;;3.83;1.50;;;;;;;19.51;nan;99616.66;5052533;28;20043;-76
2021/08/06 09:51:45;;;;;;;3.72;1.73;;;;;;;19.49;nan;99622.25;5051228;28;20029;-76
2021/08/06 09:54:19;;;;;;;3.72;1.50;;;;;;;19.47;nan;99627.03;5050906;28;20040;-76
2021/08/06 09:56:45;;;;;;;4.15;1.70;;;;;;;19.39;nan;99626.56;5049982;28;20052;-76
2021/08/06 09:59:11;;;;;;;3.45;1.23;;;;;;;19.18;nan;99625.25;5051931;28;20057;-76
2021/08/06 10:01:36;;;;;;;3.25;1.30;;;;;;;19.08;nan;99625.81;5051835;28;20057;-75
2021/08/06 10:04:14;;;;;;;2.83;1.20;;;;;;;19.04;nan;99630.81;5049807;28;20037;-76
2021/08/06 10:06:55;;;;;;;1.73;1.10;;;;;;;19.29;nan;99625.25;5039306;28;20127;-77
2021/08/06 10:09:21;;;;;;;4.72;1.52;;;;;;;19.34;nan;99626.44;5047371;28;20307;-76
2021/08/06 10:11:47;;;;;;;2.50;1.40;;;;;;;19.75;nan;99624.75;5051490;28;20033;-76
2021/08/06 10:14:12;;;;;;;4.63;1.98;;;;;;;19.73;nan;99633.84;5050386;28;20037;-76
2021/08/06 10:16:38;;;;;;;2.30;0.90;;;;;;;19.79;nan;99634.78;5051545;28;20062;-76
2021/08/06 10:19:03;;;;;;;1.80;1.10;;;;;;;19.86;nan;99642.69;5051097;28;20033;-76
2021/08/06 10:21:28;;;;;;;2.42;1.00;;;;;;;19.81;nan;99635.34;5051531;28;20037;-75
2021/08/06 10:23:54;;;;;;;2.83;1.10;;;;;;;19.99;nan;99638.94;5050987;28;20029;-77
2021/08/06 10:26:19;;;;;;;1.55;0.85;;;;;;;19.89;nan;99637.66;5050868;28;20523;-76
2021/08/06 10:28:45;;;;;;;1.00;0.70;;;;;;;19.98;nan;99629.28;5052040;28;20056;-76
2021/08/06 10:31:21;;;;;;;2.42;1.10;;;;;;;20.23;nan;99637.84;5051602;28;20048;-76
2021/08/06 10:34:05;;;;;;;1.58;1.05;;;;;;;20.66;nan;99643.81;5052052;28;20116;-77
2021/08/06 10:36:40;;;;;;;0.90;0.60;;;;;;;21.00;nan;99626.72;5049627;28;20736;-77
2021/08/06 10:39:25;;;;;;;1.65;0.77;;;;;;;21.36;nan;99632.69;5051938;28;20086;-76
2021/08/06 10:41:51;;;;;;;1.70;0.73;;;;;;;21.47;nan;99631.00;5050392;28;20433;-75
2021/08/06 10:44:16;;;;;;;1.33;0.85;;;;;;;21.51;nan;99628.66;5050805;28;20040;-75
2021/08/06 10:47:02;;;;;;;2.42;0.90;;;;;;;21.64;nan;99622.91;5049827;28;20029;-77
2021/08/06 10:49:30;;;;;;;1.55;0.70;;;;;;;22.10;nan;99634.34;5050754;28;20928;-77
2021/08/06 10:52:20;;;;;;;2.95;1.48;;;;;;;22.51;nan;99620.56;5051572;28;20051;-76
2021/08/06 10:54:47;;;;;;;1.60;1.00;;;;;;;22.44;nan;99610.78;5048676;28;20033;-77
2021/08/06 10:57:29;;;;;;;1.63;0.80;;;;;;;22.47;nan;99618.38;5051755;28;20048;-76
2021/08/06 10:59:55;;;;;;;3.15;1.00;;;;;;;22.48;nan;99611.94;5036755;28;20059;-76
2021/08/06 11:02:38;;;;;;;2.45;0.98;;;;;;;22.44;nan;99610.00;5050297;28;20060;-76
2021/08/06 11:05:29;;;;;;;2.20;0.90;;;;;;;22.06;nan;99608.97;5049513;28;20913;-76
2021/08/06 11:07:55;;;;;;;;;;;;;;;22.25;nan;99606.81;5051483;28;20517;-76
2021/08/06 11:10:43;;;;;;;3.50;1.80;;;;;;;21.70;nan;99607.69;5049985;28;19917;-76
2021/08/06 11:13:32;;;;;;;5.73;3.20;;;;;;;21.00;nan;99605.22;5041756;28;20520;-75
2021/08/06 11:16:08;;;;;;;;;;;;;;;20.32;nan;99611.44;5050214;28;20496;-76
2021/08/06 11:18:33;;;;;;;;;;;;;;;20.22;nan;99616.63;5050317;28;20079;-76
2021/08/06 11:20:59;;;;;;;5.53;2.53;;;;;;;20.05;nan;99609.31;5044038;28;20362;-75
2021/08/06 11:23:25;;;;;;;;;;;;;;;20.02;nan;99614.31;5050971;28;20037;-76
2021/08/06 11:25:52;;;;;;;3.00;1.40;;;;;;;20.01;nan;99624.25;5051281;28;19917;-76
2021/08/06 11:28:25;;;;;;;2.63;1.30;;;;;;;20.00;nan;99621.78;5049170;28;20037;-76
2021/08/06 11:30:51;;;;;;;2.38;1.10;;;;;;;20.05;nan;99614.66;5049736;28;20083;-75
2021/08/06 11:33:16;;;;;;;2.63;1.23;;;;;;;20.05;nan;99628.09;5049248;28;20115;-76
2021/08/06 11:35:44;;;;;;;2.45;1.10;;;;;;;20.18;nan;99628.88;5050788;28;20056;-76
2021/08/06 11:38:15;;;;;;;1.77;0.80;;;;;;;20.23;nan;99626.28;5050882;28;20112;-76
2021/08/06 11:40:48;;;;;;;2.20;0.80;;;;;;;20.54;nan;99630.41;5049709;28;20397;-76
2021/08/06 11:43:19;;;;;;;1.65;0.70;;;;;;;20.77;nan;99632.22;5050048;28;20544;-76
2021/08/06 11:45:50;;;;;;;2.47;1.15;;;;;;;20.88;nan;99630.50;5050816;28;20037;-75
2021/08/06 11:48:17;;;;;;;1.10;0.65;;;;;;;21.11;nan;99624.22;5043034;28;20133;-76
2021/08/06 11:50:43;;;;;;;1.23;0.60;;;;;;;21.31;nan;99623.72;5050258;28;20044;-76
2021/08/06 11:53:28;;;;;;;1.42;0.57;;;;;;;21.62;nan;99617.00;5045528;28;20756;-76
2021/08/06 11:55:59;;;;;;;1.45;0.70;;;;;;;21.71;nan;99617.38;5049766;28;20071;-76